sensor_id;sensor_type;location;lat;lon;timestamp;temperature;humidity
70726;DHT22;58304;53.104;6.022;2023-02-18T00:01:01;6.80;99.90
70726;DHT22;58304;53.104;6.022;2023-02-18T00:03:28;6.80;99.90
70726;DHT22;58304;53.104;6.022;2023-02-18T00:05:54;6.90;99.90
70726;DHT22;58304;53.104;6.022;2023-02-18T00:08:21;6.90;99.90
70726;DHT22;58304;53.104;6.022;2023-02-18T00:10:47;7.00;99.90
70726;DHT22;58304;53.104;6.022;2023-02-18T00:13:13;7.00;99.90
70726;DHT22;58304;53.104;6.022;2023-02-18T00:15:38;7.00;99.90
70726;DHT22;58304;53.104;6.022;2023-02-18T00:18:04;7.00;99.90
70726;DHT22;58304;53.104;6.022;2023-02-18T00:20:30;7.00;99.90
70726;DHT22;58304;53.104;6.022;2023-02-18T00:22:58;7.00;99.90
70726;DHT22;58304;53.104;6.022;2023-02-18T00:25:24;7.00;99.90
70726;DHT22;58304;53.104;6.022;2023-02-18T00:27:49;7.10;99.90
70726;DHT22;58304;53.104;6.022;2023-02-18T00:30:15;7.10;99.90
70726;DHT22;58304;53.104;6.022;2023-02-18T00:32:40;7.20;99.90
70726;DHT22;58304;53.104;6.022;2023-02-18T00:35:06;7.10;99.90
70726;DHT22;58304;53.104;6.022;2023-02-18T00:37:32;7.20;99.90
70726;DHT22;58304;53.104;6.022;2023-02-18T00:39:57;7.10;99.90
70726;DHT22;58304;53.104;6.022;2023-02-18T00:42:23;7.20;99.90
70726;DHT22;58304;53.104;6.022;2023-02-18T00:44:48;7.10;99.90
70726;DHT22;58304;53.104;6.022;2023-02-18T00:47:14;7.20;99.90
70726;DHT22;58304;53.104;6.022;2023-02-18T00:49:39;7.20;99.90
70726;DHT22;58304;53.104;6.022;2023-02-18T00:52:05;7.20;99.90
70726;DHT22;58304;53.104;6.022;2023-02-18T00:54:30;7.10;99.90
70726;DHT22;58304;53.104;6.022;2023-02-18T00:56:56;7.10;99.90
70726;DHT22;58304;53.104;6.022;2023-02-18T00:59:21;7.10;99.90
70726;DHT22;58304;53.104;6.022;2023-02-18T01:01:47;7.10;99.90
70726;DHT22;58304;53.104;6.022;2023-02-18T01:04:12;7.10;99.90
70726;DHT22;58304;53.104;6.022;2023-02-18T01:06:38;7.10;99.90
70726;DHT22;58304;53.104;6.022;2023-02-18T01:09:04;7.10;99.90
70726;DHT22;58304;53.104;6.022;2023-02-18T01:11:30;7.20;99.90
70726;DHT22;58304;53.104;6.022;2023-02-18T01:13:55;7.20;99.90
70726;DHT22;58304;53.104;6.022;2023-02-18T01:16:21;7.30;99.90
70726;DHT22;58304;53.104;6.022;2023-02-18T01:18:47;7.30;99.90
70726;DHT22;58304;53.104;6.022;2023-02-18T01:21:13;7.30;99.90
70726;DHT22;58304;53.104;6.022;2023-02-18T01:23:39;7.40;99.90
70726;DHT22;58304;53.104;6.022;2023-02-18T01:26:05;7.40;99.90
70726;DHT22;58304;53.104;6.022;2023-02-18T01:28:32;7.40;99.90
70726;DHT22;58304;53.104;6.022;2023-02-18T01:30:57;7.50;99.90
70726;DHT22;58304;53.104;6.022;2023-02-18T01:33:28;7.50;99.90
70726;DHT22;58304;53.104;6.022;2023-02-18T01:35:54;7.50;99.90
70726;DHT22;58304;53.104;6.022;2023-02-18T01:38:19;7.50;99.90
70726;DHT22;58304;53.104;6.022;2023-02-18T01:40:49;7.50;99.90
70726;DHT22;58304;53.104;6.022;2023-02-18T01:43:19;7.50;99.90
70726;DHT22;58304;53.104;6.022;2023-02-18T01:50:51;7.60;99.90
70726;DHT22;58304;53.104;6.022;2023-02-18T01:53:34;7.60;99.90
70726;DHT22;58304;53.104;6.022;2023-02-18T01:56:02;7.60;99.90
70726;DHT22;58304;53.104;6.022;2023-02-18T01:58:29;7.70;99.90
70726;DHT22;58304;53.104;6.022;2023-02-18T02:00:55;7.60;99.90
70726;DHT22;58304;53.104;6.022;2023-02-18T02:03:21;7.60;99.90
70726;DHT22;58304;53.104;6.022;2023-02-18T02:05:46;7.60;99.90
70726;DHT22;58304;53.104;6.022;2023-02-18T02:08:12;7.60;99.90
70726;DHT22;58304;53.104;6.022;2023-02-18T02:29:47;7.50;99.90
70726;DHT22;58304;53.104;6.022;2023-02-18T02:37:37;7.60;99.90
70726;DHT22;58304;53.104;6.022;2023-02-18T02:40:18;7.60;99.90
70726;DHT22;58304;53.104;6.022;2023-02-18T02:42:58;7.70;99.90
70726;DHT22;58304;53.104;6.022;2023-02-18T02:45:42;7.70;99.90
70726;DHT22;58304;53.104;6.022;2023-02-18T02:48:28;7.70;99.90
70726;DHT22;58304;53.104;6.022;2023-02-18T02:51:12;7.70;99.90
70726;DHT22;58304;53.104;6.022;2023-02-18T02:53:41;7.80;99.90
70726;DHT22;58304;53.104;6.022;2023-02-18T02:56:25;7.80;99.90
70726;DHT22;58304;53.104;6.022;2023-02-18T02:59:01;7.80;99.90
70726;DHT22;58304;53.104;6.022;2023-02-18T03:04:22;7.80;99.90
70726;DHT22;58304;53.104;6.022;2023-02-18T03:06:58;7.90;99.90
70726;DHT22;58304;53.104;6.022;2023-02-18T03:12:22;7.90;99.90
70726;DHT22;58304;53.104;6.022;2023-02-18T03:18:06;7.90;99.90
70726;DHT22;58304;53.104;6.022;2023-02-18T03:20:57;7.90;99.90
70726;DHT22;58304;53.104;6.022;2023-02-18T03:23:33;7.90;99.90
70726;DHT22;58304;53.104;6.022;2023-02-18T03:25:59;7.90;99.90
70726;DHT22;58304;53.104;6.022;2023-02-18T03:28:26;7.90;99.90
70726;DHT22;58304;53.104;6.022;2023-02-18T03:30:59;7.90;99.90
70726;DHT22;58304;53.104;6.022;2023-02-18T03:33:37;7.90;99.90
70726;DHT22;58304;53.104;6.022;2023-02-18T03:36:05;8.00;99.90
70726;DHT22;58304;53.104;6.022;2023-02-18T03:41:15;8.00;99.90
70726;DHT22;58304;53.104;6.022;2023-02-18T03:43:51;8.00;99.90
70726;DHT22;58304;53.104;6.022;2023-02-18T03:46:17;8.00;99.90
70726;DHT22;58304;53.104;6.022;2023-02-18T03:48:43;8.00;99.90
70726;DHT22;58304;53.104;6.022;2023-02-18T03:51:09;8.00;99.90
70726;DHT22;58304;53.104;6.022;2023-02-18T03:53:34;8.00;99.90
70726;DHT22;58304;53.104;6.022;2023-02-18T03:56:00;8.10;99.90
70726;DHT22;58304;53.104;6.022;2023-02-18T03:58:25;8.10;99.90
70726;DHT22;58304;53.104;6.022;2023-02-18T04:00:51;8.10;99.90
70726;DHT22;58304;53.104;6.022;2023-02-18T04:03:16;8.10;99.90
70726;DHT22;58304;53.104;6.022;2023-02-18T04:05:42;8.10;99.90
70726;DHT22;58304;53.104;6.022;2023-02-18T04:08:07;8.20;99.90
70726;DHT22;58304;53.104;6.022;2023-02-18T04:10:33;8.10;99.90
70726;DHT22;58304;53.104;6.022;2023-02-18T04:12:58;8.20;99.90
70726;DHT22;58304;53.104;6.022;2023-02-18T04:15:24;8.20;99.90
70726;DHT22;58304;53.104;6.022;2023-02-18T04:17:49;8.20;99.90
70726;DHT22;58304;53.104;6.022;2023-02-18T04:20:15;8.20;99.90
70726;DHT22;58304;53.104;6.022;2023-02-18T04:22:41;8.20;99.90
70726;DHT22;58304;53.104;6.022;2023-02-18T04:25:06;8.20;99.90
70726;DHT22;58304;53.104;6.022;2023-02-18T04:27:32;8.20;99.90
70726;DHT22;58304;53.104;6.022;2023-02-18T04:29:58;8.10;99.90
70726;DHT22;58304;53.104;6.022;2023-02-18T04:32:23;8.20;99.90
70726;DHT22;58304;53.104;6.022;2023-02-18T04:34:49;8.20;99.90
70726;DHT22;58304;53.104;6.022;2023-02-18T04:37:14;8.20;99.90
70726;DHT22;58304;53.104;6.022;2023-02-18T04:39:40;8.10;99.90
70726;DHT22;58304;53.104;6.022;2023-02-18T04:42:05;8.10;99.90
70726;DHT22;58304;53.104;6.022;2023-02-18T04:44:35;8.10;99.90
70726;DHT22;58304;53.104;6.022;2023-02-18T04:47:01;8.10;99.90
70726;DHT22;58304;53.104;6.022;2023-02-18T04:49:27;8.10;99.90
70726;DHT22;58304;53.104;6.022;2023-02-18T04:51:52;8.10;99.90
70726;DHT22;58304;53.104;6.022;2023-02-18T04:54:18;8.10;99.90
70726;DHT22;58304;53.104;6.022;2023-02-18T04:56:43;8.20;99.90
70726;DHT22;58304;53.104;6.022;2023-02-18T04:59:09;8.10;99.90
70726;DHT22;58304;53.104;6.022;2023-02-18T05:01:36;8.20;99.90
70726;DHT22;58304;53.104;6.022;2023-02-18T05:04:01;8.10;99.90
70726;DHT22;58304;53.104;6.022;2023-02-18T05:06:27;8.20;99.90
70726;DHT22;58304;53.104;6.022;2023-02-18T05:08:52;8.20;99.90
70726;DHT22;58304;53.104;6.022;2023-02-18T05:11:18;8.20;99.90
70726;DHT22;58304;53.104;6.022;2023-02-18T05:13:43;8.20;99.90
70726;DHT22;58304;53.104;6.022;2023-02-18T05:16:09;8.10;99.90
70726;DHT22;58304;53.104;6.022;2023-02-18T05:18:34;8.20;99.90
70726;DHT22;58304;53.104;6.022;2023-02-18T05:21:00;8.20;99.90
70726;DHT22;58304;53.104;6.022;2023-02-18T05:23:25;8.30;99.90
70726;DHT22;58304;53.104;6.022;2023-02-18T05:25:51;8.20;99.90
70726;DHT22;58304;53.104;6.022;2023-02-18T05:28:17;8.30;99.90
70726;DHT22;58304;53.104;6.022;2023-02-18T05:30:42;8.30;99.90
70726;DHT22;58304;53.104;6.022;2023-02-18T05:33:08;8.30;99.90
70726;DHT22;58304;53.104;6.022;2023-02-18T05:35:33;8.40;99.90
70726;DHT22;58304;53.104;6.022;2023-02-18T05:37:59;8.30;99.90
70726;DHT22;58304;53.104;6.022;2023-02-18T05:40:26;8.30;99.90
70726;DHT22;58304;53.104;6.022;2023-02-18T05:42:51;8.30;99.90
70726;DHT22;58304;53.104;6.022;2023-02-18T05:45:17;8.40;99.90
70726;DHT22;58304;53.104;6.022;2023-02-18T05:47:42;8.40;99.90
70726;DHT22;58304;53.104;6.022;2023-02-18T05:50:08;8.40;99.90
70726;DHT22;58304;53.104;6.022;2023-02-18T05:52:33;8.40;99.90
70726;DHT22;58304;53.104;6.022;2023-02-18T05:54:59;8.50;99.90
70726;DHT22;58304;53.104;6.022;2023-02-18T05:57:24;8.50;99.90
70726;DHT22;58304;53.104;6.022;2023-02-18T05:59:50;8.50;99.90
70726;DHT22;58304;53.104;6.022;2023-02-18T06:02:16;8.60;99.90
70726;DHT22;58304;53.104;6.022;2023-02-18T06:04:41;8.60;99.90
70726;DHT22;58304;53.104;6.022;2023-02-18T06:07:07;8.80;99.90
70726;DHT22;58304;53.104;6.022;2023-02-18T06:09:32;8.80;99.90
70726;DHT22;58304;53.104;6.022;2023-02-18T06:11:58;8.80;99.90
70726;DHT22;58304;53.104;6.022;2023-02-18T06:14:23;9.00;99.90
70726;DHT22;58304;53.104;6.022;2023-02-18T06:16:49;9.00;99.90
70726;DHT22;58304;53.104;6.022;2023-02-18T06:19:14;9.10;99.90
70726;DHT22;58304;53.104;6.022;2023-02-18T06:21:40;9.20;99.90
70726;DHT22;58304;53.104;6.022;2023-02-18T06:24:06;9.20;99.90
70726;DHT22;58304;53.104;6.022;2023-02-18T06:26:32;9.30;99.90
70726;DHT22;58304;53.104;6.022;2023-02-18T06:28:58;9.30;99.90
70726;DHT22;58304;53.104;6.022;2023-02-18T06:31:24;9.30;99.90
70726;DHT22;58304;53.104;6.022;2023-02-18T06:33:49;9.40;99.90
70726;DHT22;58304;53.104;6.022;2023-02-18T06:36:15;9.40;99.90
70726;DHT22;58304;53.104;6.022;2023-02-18T06:38:42;9.40;99.90
70726;DHT22;58304;53.104;6.022;2023-02-18T06:41:09;9.50;99.90
70726;DHT22;58304;53.104;6.022;2023-02-18T06:43:35;9.50;99.90
70726;DHT22;58304;53.104;6.022;2023-02-18T06:46:01;9.50;99.90
70726;DHT22;58304;53.104;6.022;2023-02-18T06:48:26;9.60;99.90
70726;DHT22;58304;53.104;6.022;2023-02-18T06:50:52;9.60;99.90
70726;DHT22;58304;53.104;6.022;2023-02-18T06:53:18;9.70;99.90
70726;DHT22;58304;53.104;6.022;2023-02-18T06:55:43;9.70;99.90
70726;DHT22;58304;53.104;6.022;2023-02-18T06:58:10;9.70;99.90
70726;DHT22;58304;53.104;6.022;2023-02-18T07:00:36;9.70;99.90
70726;DHT22;58304;53.104;6.022;2023-02-18T07:03:02;9.70;99.90
70726;DHT22;58304;53.104;6.022;2023-02-18T07:05:28;9.80;99.90
70726;DHT22;58304;53.104;6.022;2023-02-18T07:07:54;9.80;99.90
70726;DHT22;58304;53.104;6.022;2023-02-18T07:10:19;9.80;99.90
70726;DHT22;58304;53.104;6.022;2023-02-18T07:12:45;9.80;99.90
70726;DHT22;58304;53.104;6.022;2023-02-18T07:15:11;9.80;99.90
70726;DHT22;58304;53.104;6.022;2023-02-18T07:17:36;9.80;99.90
70726;DHT22;58304;53.104;6.022;2023-02-18T07:20:03;9.80;99.90
70726;DHT22;58304;53.104;6.022;2023-02-18T07:22:29;9.80;99.90
70726;DHT22;58304;53.104;6.022;2023-02-18T07:24:54;9.90;99.90
70726;DHT22;58304;53.104;6.022;2023-02-18T07:27:21;9.90;99.90
70726;DHT22;58304;53.104;6.022;2023-02-18T07:29:47;9.90;99.90
70726;DHT22;58304;53.104;6.022;2023-02-18T07:32:15;9.90;99.90
70726;DHT22;58304;53.104;6.022;2023-02-18T07:34:41;9.90;99.90
70726;DHT22;58304;53.104;6.022;2023-02-18T07:37:07;9.90;99.90
70726;DHT22;58304;53.104;6.022;2023-02-18T07:39:43;9.90;99.90
70726;DHT22;58304;53.104;6.022;2023-02-18T07:42:10;9.90;99.90
70726;DHT22;58304;53.104;6.022;2023-02-18T07:44:37;9.90;99.90
70726;DHT22;58304;53.104;6.022;2023-02-18T07:47:04;10.00;99.90
70726;DHT22;58304;53.104;6.022;2023-02-18T07:49:30;9.90;99.90
70726;DHT22;58304;53.104;6.022;2023-02-18T07:51:56;9.90;99.90
70726;DHT22;58304;53.104;6.022;2023-02-18T07:54:21;9.90;99.90
70726;DHT22;58304;53.104;6.022;2023-02-18T07:56:47;9.90;99.90
70726;DHT22;58304;53.104;6.022;2023-02-18T07:59:13;9.90;99.90
70726;DHT22;58304;53.104;6.022;2023-02-18T08:01:39;9.90;99.90
70726;DHT22;58304;53.104;6.022;2023-02-18T08:04:06;9.80;99.90
70726;DHT22;58304;53.104;6.022;2023-02-18T08:06:39;9.90;99.90
70726;DHT22;58304;53.104;6.022;2023-02-18T08:09:06;9.90;99.90
70726;DHT22;58304;53.104;6.022;2023-02-18T08:11:33;9.90;99.90
70726;DHT22;58304;53.104;6.022;2023-02-18T08:13:58;9.80;99.90
70726;DHT22;58304;53.104;6.022;2023-02-18T08:16:24;9.90;99.90
70726;DHT22;58304;53.104;6.022;2023-02-18T08:18:50;9.80;99.90
70726;DHT22;58304;53.104;6.022;2023-02-18T08:21:17;9.80;99.90
70726;DHT22;58304;53.104;6.022;2023-02-18T08:23:43;9.90;99.90
70726;DHT22;58304;53.104;6.022;2023-02-18T08:26:09;9.80;99.90
70726;DHT22;58304;53.104;6.022;2023-02-18T08:28:35;9.80;99.90
70726;DHT22;58304;53.104;6.022;2023-02-18T08:31:00;9.80;99.90
70726;DHT22;58304;53.104;6.022;2023-02-18T08:33:26;9.90;99.90
70726;DHT22;58304;53.104;6.022;2023-02-18T08:35:54;9.90;99.90
70726;DHT22;58304;53.104;6.022;2023-02-18T08:38:21;9.90;99.90
70726;DHT22;58304;53.104;6.022;2023-02-18T08:40:47;9.90;99.90
70726;DHT22;58304;53.104;6.022;2023-02-18T08:43:14;9.90;99.90
70726;DHT22;58304;53.104;6.022;2023-02-18T08:45:40;9.80;99.90
70726;DHT22;58304;53.104;6.022;2023-02-18T08:48:06;9.80;99.90
70726;DHT22;58304;53.104;6.022;2023-02-18T08:50:33;9.80;99.90
70726;DHT22;58304;53.104;6.022;2023-02-18T08:52:58;9.70;99.90
70726;DHT22;58304;53.104;6.022;2023-02-18T08:55:26;9.70;99.90
70726;DHT22;58304;53.104;6.022;2023-02-18T08:57:51;9.70;99.90
70726;DHT22;58304;53.104;6.022;2023-02-18T09:00:18;9.70;99.90
70726;DHT22;58304;53.104;6.022;2023-02-18T09:02:43;9.80;99.90
70726;DHT22;58304;53.104;6.022;2023-02-18T09:05:11;9.80;99.90
70726;DHT22;58304;53.104;6.022;2023-02-18T09:07:37;9.80;99.90
70726;DHT22;58304;53.104;6.022;2023-02-18T09:10:03;9.80;99.90
70726;DHT22;58304;53.104;6.022;2023-02-18T09:12:28;9.90;99.90
70726;DHT22;58304;53.104;6.022;2023-02-18T09:14:54;9.90;99.90
70726;DHT22;58304;53.104;6.022;2023-02-18T09:17:20;9.90;99.90
70726;DHT22;58304;53.104;6.022;2023-02-18T09:19:45;9.90;99.90
70726;DHT22;58304;53.104;6.022;2023-02-18T09:22:11;10.00;99.90
70726;DHT22;58304;53.104;6.022;2023-02-18T09:24:38;10.00;99.90
70726;DHT22;58304;53.104;6.022;2023-02-18T09:27:04;10.00;99.90
70726;DHT22;58304;53.104;6.022;2023-02-18T09:29:33;10.10;99.90
70726;DHT22;58304;53.104;6.022;2023-02-18T09:32:00;10.00;99.90
70726;DHT22;58304;53.104;6.022;2023-02-18T09:34:26;10.10;99.90
70726;DHT22;58304;53.104;6.022;2023-02-18T09:36:51;10.10;99.90
70726;DHT22;58304;53.104;6.022;2023-02-18T09:39:17;10.00;99.90
70726;DHT22;58304;53.104;6.022;2023-02-18T09:41:49;10.00;99.90
70726;DHT22;58304;53.104;6.022;2023-02-18T09:44:20;10.10;99.90
70726;DHT22;58304;53.104;6.022;2023-02-18T09:46:51;10.10;99.90
70726;DHT22;58304;53.104;6.022;2023-02-18T09:49:22;10.10;99.90
70726;DHT22;58304;53.104;6.022;2023-02-18T09:51:50;10.20;99.90
70726;DHT22;58304;53.104;6.022;2023-02-18T09:54:17;10.20;99.90
70726;DHT22;58304;53.104;6.022;2023-02-18T09:56:45;10.20;99.90
70726;DHT22;58304;53.104;6.022;2023-02-18T09:59:17;10.30;99.90
70726;DHT22;58304;53.104;6.022;2023-02-18T10:01:46;10.50;99.90
70726;DHT22;58304;53.104;6.022;2023-02-18T10:04:17;10.50;99.90
70726;DHT22;58304;53.104;6.022;2023-02-18T10:06:45;10.50;99.90
70726;DHT22;58304;53.104;6.022;2023-02-18T10:09:19;10.70;99.90
70726;DHT22;58304;53.104;6.022;2023-02-18T10:12:12;10.70;99.90
70726;DHT22;58304;53.104;6.022;2023-02-18T10:14:35;10.80;99.90
70726;DHT22;58304;53.104;6.022;2023-02-18T10:17:01;10.90;99.90
70726;DHT22;58304;53.104;6.022;2023-02-18T10:19:33;10.90;99.90
70726;DHT22;58304;53.104;6.022;2023-02-18T10:22:01;11.10;99.90
70726;DHT22;58304;53.104;6.022;2023-02-18T10:24:29;11.20;99.90
70726;DHT22;58304;53.104;6.022;2023-02-18T10:26:56;11.30;99.90
70726;DHT22;58304;53.104;6.022;2023-02-18T10:29:23;11.30;99.90
70726;DHT22;58304;53.104;6.022;2023-02-18T10:32:05;11.50;99.90
70726;DHT22;58304;53.104;6.022;2023-02-18T10:34:46;12.10;99.90
70726;DHT22;58304;53.104;6.022;2023-02-18T10:37:50;12.40;99.90
70726;DHT22;58304;53.104;6.022;2023-02-18T10:48:55;12.20;99.90
70726;DHT22;58304;53.104;6.022;2023-02-18T10:51:32;11.90;99.90
70726;DHT22;58304;53.104;6.022;2023-02-18T10:53:59;11.90;99.90
70726;DHT22;58304;53.104;6.022;2023-02-18T10:56:47;11.90;99.90
70726;DHT22;58304;53.104;6.022;2023-02-18T10:59:19;12.00;99.90
70726;DHT22;58304;53.104;6.022;2023-02-18T11:01:57;12.10;99.90
70726;DHT22;58304;53.104;6.022;2023-02-18T11:04:38;12.00;99.90
70726;DHT22;58304;53.104;6.022;2023-02-18T11:07:26;12.40;99.90
70726;DHT22;58304;53.104;6.022;2023-02-18T11:09:55;13.20;99.90
70726;DHT22;58304;53.104;6.022;2023-02-18T11:14:50;13.00;99.90
70726;DHT22;58304;53.104;6.022;2023-02-18T11:17:30;12.80;99.90
70726;DHT22;58304;53.104;6.022;2023-02-18T11:20:01;12.60;99.90
70726;DHT22;58304;53.104;6.022;2023-02-18T11:22:31;12.50;99.90
70726;DHT22;58304;53.104;6.022;2023-02-18T11:25:03;12.80;99.90
70726;DHT22;58304;53.104;6.022;2023-02-18T11:27:49;12.90;99.90
70726;DHT22;58304;53.104;6.022;2023-02-18T11:30:40;12.80;99.90
70726;DHT22;58304;53.104;6.022;2023-02-18T11:35:56;13.10;99.90
70726;DHT22;58304;53.104;6.022;2023-02-18T11:38:34;13.30;99.90
70726;DHT22;58304;53.104;6.022;2023-02-18T11:41:13;13.30;99.90
70726;DHT22;58304;53.104;6.022;2023-02-18T11:43:47;13.20;99.90
70726;DHT22;58304;53.104;6.022;2023-02-18T11:46:17;12.80;99.90
70726;DHT22;58304;53.104;6.022;2023-02-18T11:48:43;12.70;99.90
70726;DHT22;58304;53.104;6.022;2023-02-18T11:51:27;12.60;99.90
70726;DHT22;58304;53.104;6.022;2023-02-18T11:56:26;12.20;99.90
70726;DHT22;58304;53.104;6.022;2023-02-18T11:58:52;12.30;99.90
70726;DHT22;58304;53.104;6.022;2023-02-18T12:04:03;12.40;99.90
70726;DHT22;58304;53.104;6.022;2023-02-18T12:09:30;12.60;99.90
70726;DHT22;58304;53.104;6.022;2023-02-18T12:11:59;12.80;99.90
70726;DHT22;58304;53.104;6.022;2023-02-18T12:14:26;13.00;99.90
70726;DHT22;58304;53.104;6.022;2023-02-18T12:23:21;13.50;99.90
70726;DHT22;58304;53.104;6.022;2023-02-18T12:28:40;13.40;99.90
70726;DHT22;58304;53.104;6.022;2023-02-18T12:33:47;13.10;99.90
70726;DHT22;58304;53.104;6.022;2023-02-18T12:36:31;12.80;99.90
70726;DHT22;58304;53.104;6.022;2023-02-18T12:39:04;12.80;99.90
70726;DHT22;58304;53.104;6.022;2023-02-18T12:41:48;12.80;99.90
70726;DHT22;58304;53.104;6.022;2023-02-18T12:44:52;12.60;99.90
70726;DHT22;58304;53.104;6.022;2023-02-18T12:50:14;12.70;99.90
70726;DHT22;58304;53.104;6.022;2023-02-18T12:53:54;12.50;99.90
70726;DHT22;58304;53.104;6.022;2023-02-18T13:01:51;12.60;99.90
70726;DHT22;58304;53.104;6.022;2023-02-18T13:04:32;12.60;99.90
70726;DHT22;58304;53.104;6.022;2023-02-18T13:10:33;12.40;99.90
70726;DHT22;58304;53.104;6.022;2023-02-18T13:15:58;12.30;99.90
70726;DHT22;58304;53.104;6.022;2023-02-18T13:18:32;12.30;99.90
70726;DHT22;58304;53.104;6.022;2023-02-18T13:21:08;12.10;99.90
70726;DHT22;58304;53.104;6.022;2023-02-18T13:26:10;12.20;99.90
70726;DHT22;58304;53.104;6.022;2023-02-18T13:29:02;12.20;99.90
70726;DHT22;58304;53.104;6.022;2023-02-18T13:31:53;12.20;99.90
70726;DHT22;58304;53.104;6.022;2023-02-18T13:34:54;12.00;99.90
70726;DHT22;58304;53.104;6.022;2023-02-18T13:39:54;12.10;99.90
70726;DHT22;58304;53.104;6.022;2023-02-18T13:47:44;12.10;99.90
70726;DHT22;58304;53.104;6.022;2023-02-18T13:55:36;12.00;99.90
70726;DHT22;58304;53.104;6.022;2023-02-18T13:58:04;11.90;99.90
70726;DHT22;58304;53.104;6.022;2023-02-18T14:00:38;12.20;99.90
70726;DHT22;58304;53.104;6.022;2023-02-18T14:08:48;12.20;99.90
70726;DHT22;58304;53.104;6.022;2023-02-18T14:13:51;12.10;99.90
70726;DHT22;58304;53.104;6.022;2023-02-18T14:16:19;12.10;99.90
70726;DHT22;58304;53.104;6.022;2023-02-18T14:26:30;11.90;99.90
70726;DHT22;58304;53.104;6.022;2023-02-18T14:29:09;11.80;99.90
70726;DHT22;58304;53.104;6.022;2023-02-18T14:45:34;11.80;99.90
70726;DHT22;58304;53.104;6.022;2023-02-18T14:48:16;11.80;99.90
70726;DHT22;58304;53.104;6.022;2023-02-18T14:50:47;11.70;99.90
70726;DHT22;58304;53.104;6.022;2023-02-18T14:53:17;11.60;99.90
70726;DHT22;58304;53.104;6.022;2023-02-18T14:55:47;11.60;99.90
70726;DHT22;58304;53.104;6.022;2023-02-18T15:00:57;11.40;99.90
70726;DHT22;58304;53.104;6.022;2023-02-18T15:03:29;11.30;99.90
70726;DHT22;58304;53.104;6.022;2023-02-18T15:05:55;11.30;99.90
70726;DHT22;58304;53.104;6.022;2023-02-18T15:08:23;11.30;99.90
70726;DHT22;58304;53.104;6.022;2023-02-18T15:11:02;11.20;99.90
70726;DHT22;58304;53.104;6.022;2023-02-18T15:13:40;11.10;99.90
70726;DHT22;58304;53.104;6.022;2023-02-18T15:16:17;11.10;99.90
70726;DHT22;58304;53.104;6.022;2023-02-18T15:18:48;10.90;99.90
70726;DHT22;58304;53.104;6.022;2023-02-18T15:21:40;10.90;99.90
70726;DHT22;58304;53.104;6.022;2023-02-18T15:24:23;10.90;99.90
70726;DHT22;58304;53.104;6.022;2023-02-18T15:26:51;10.90;99.90
70726;DHT22;58304;53.104;6.022;2023-02-18T15:29:22;10.80;99.90
70726;DHT22;58304;53.104;6.022;2023-02-18T15:31:48;10.80;99.90
70726;DHT22;58304;53.104;6.022;2023-02-18T15:36:59;10.80;99.90
70726;DHT22;58304;53.104;6.022;2023-02-18T15:39:25;10.80;99.90
70726;DHT22;58304;53.104;6.022;2023-02-18T15:41:54;10.80;99.90
70726;DHT22;58304;53.104;6.022;2023-02-18T15:44:23;10.70;99.90
70726;DHT22;58304;53.104;6.022;2023-02-18T15:46:50;10.60;99.90
70726;DHT22;58304;53.104;6.022;2023-02-18T15:49:19;10.60;99.90
70726;DHT22;58304;53.104;6.022;2023-02-18T15:51:46;10.60;99.90
70726;DHT22;58304;53.104;6.022;2023-02-18T15:54:20;10.60;99.90
70726;DHT22;58304;53.104;6.022;2023-02-18T15:56:50;10.50;99.90
70726;DHT22;58304;53.104;6.022;2023-02-18T15:59:19;10.50;99.90
70726;DHT22;58304;53.104;6.022;2023-02-18T16:02:34;10.50;99.90
70726;DHT22;58304;53.104;6.022;2023-02-18T16:04:46;10.50;99.90
70726;DHT22;58304;53.104;6.022;2023-02-18T16:07:23;10.50;99.90
70726;DHT22;58304;53.104;6.022;2023-02-18T16:09:49;10.40;99.90
70726;DHT22;58304;53.104;6.022;2023-02-18T16:12:29;10.30;99.90
70726;DHT22;58304;53.104;6.022;2023-02-18T16:14:56;10.40;99.90
70726;DHT22;58304;53.104;6.022;2023-02-18T16:17:25;10.30;99.90
70726;DHT22;58304;53.104;6.022;2023-02-18T16:20:35;10.30;99.90
70726;DHT22;58304;53.104;6.022;2023-02-18T16:22:57;10.20;99.90
70726;DHT22;58304;53.104;6.022;2023-02-18T16:25:46;10.20;99.90
70726;DHT22;58304;53.104;6.022;2023-02-18T16:28:14;10.10;99.90
70726;DHT22;58304;53.104;6.022;2023-02-18T16:30:41;10.10;99.90
70726;DHT22;58304;53.104;6.022;2023-02-18T16:33:09;10.10;99.90
70726;DHT22;58304;53.104;6.022;2023-02-18T16:35:35;10.10;99.90
70726;DHT22;58304;53.104;6.022;2023-02-18T16:38:01;10.10;99.90
70726;DHT22;58304;53.104;6.022;2023-02-18T16:40:36;10.00;99.90
70726;DHT22;58304;53.104;6.022;2023-02-18T16:43:10;10.00;99.90
70726;DHT22;58304;53.104;6.022;2023-02-18T16:45:39;10.00;99.90
70726;DHT22;58304;53.104;6.022;2023-02-18T16:48:12;9.80;99.90
70726;DHT22;58304;53.104;6.022;2023-02-18T16:50:38;9.70;99.90
70726;DHT22;58304;53.104;6.022;2023-02-18T16:53:04;9.70;99.90
70726;DHT22;58304;53.104;6.022;2023-02-18T16:55:30;9.70;99.90
70726;DHT22;58304;53.104;6.022;2023-02-18T16:57:55;9.70;99.90
70726;DHT22;58304;53.104;6.022;2023-02-18T17:00:22;9.70;99.90
70726;DHT22;58304;53.104;6.022;2023-02-18T17:02:50;9.70;99.90
70726;DHT22;58304;53.104;6.022;2023-02-18T17:05:21;9.70;99.90
70726;DHT22;58304;53.104;6.022;2023-02-18T17:07:47;9.70;99.90
70726;DHT22;58304;53.104;6.022;2023-02-18T17:10:13;9.70;99.90
70726;DHT22;58304;53.104;6.022;2023-02-18T17:12:39;9.70;99.90
70726;DHT22;58304;53.104;6.022;2023-02-18T17:15:23;9.60;99.90
70726;DHT22;58304;53.104;6.022;2023-02-18T17:17:50;9.60;99.90
70726;DHT22;58304;53.104;6.022;2023-02-18T17:20:16;9.60;99.90
70726;DHT22;58304;53.104;6.022;2023-02-18T17:22:41;9.50;99.90
70726;DHT22;58304;53.104;6.022;2023-02-18T17:25:14;9.60;99.90
70726;DHT22;58304;53.104;6.022;2023-02-18T17:27:41;9.50;99.90
70726;DHT22;58304;53.104;6.022;2023-02-18T17:30:07;9.50;99.90
70726;DHT22;58304;53.104;6.022;2023-02-18T17:32:33;9.50;99.90
70726;DHT22;58304;53.104;6.022;2023-02-18T17:34:59;9.50;99.90
70726;DHT22;58304;53.104;6.022;2023-02-18T17:37:24;9.50;99.90
70726;DHT22;58304;53.104;6.022;2023-02-18T17:39:50;9.60;99.90
70726;DHT22;58304;53.104;6.022;2023-02-18T17:42:16;9.50;99.90
70726;DHT22;58304;53.104;6.022;2023-02-18T17:44:41;9.50;99.90
70726;DHT22;58304;53.104;6.022;2023-02-18T17:47:07;9.50;99.90
70726;DHT22;58304;53.104;6.022;2023-02-18T17:49:33;9.50;99.90
70726;DHT22;58304;53.104;6.022;2023-02-18T17:51:58;9.50;99.90
70726;DHT22;58304;53.104;6.022;2023-02-18T17:54:25;9.40;99.90
70726;DHT22;58304;53.104;6.022;2023-02-18T17:56:51;9.40;99.90
70726;DHT22;58304;53.104;6.022;2023-02-18T17:59:16;9.40;99.90
70726;DHT22;58304;53.104;6.022;2023-02-18T18:01:42;9.40;99.90
70726;DHT22;58304;53.104;6.022;2023-02-18T18:04:17;9.30;99.90
70726;DHT22;58304;53.104;6.022;2023-02-18T18:06:43;9.20;99.90
70726;DHT22;58304;53.104;6.022;2023-02-18T18:09:08;9.20;99.90
70726;DHT22;58304;53.104;6.022;2023-02-18T18:11:34;9.10;99.90
70726;DHT22;58304;53.104;6.022;2023-02-18T18:14:00;9.10;99.90